sensor_id;sensor_type;location;lat;lon;timestamp;pressure;altitude;pressure_sealevel;temperature;humidity
7802;BME280;3945;48.952;9.506;2022-12-29T00:01:33;97491.25;;;10.17;68.49
7802;BME280;3945;48.952;9.506;2022-12-29T00:04:02;97488.72;;;10.27;67.80
7802;BME280;3945;48.952;9.506;2022-12-29T00:06:36;97488.53;;;10.34;67.69
7802;BME280;3945;48.952;9.506;2022-12-29T00:09:12;97484.31;;;10.38;67.66
7802;BME280;3945;48.952;9.506;2022-12-29T00:11:39;97478.00;;;10.44;67.87
7802;BME280;3945;48.952;9.506;2022-12-29T00:14:15;97479.72;;;10.55;67.21
7802;BME280;3945;48.952;9.506;2022-12-29T00:16:58;97470.16;;;10.59;67.00
7802;BME280;3945;48.952;9.506;2022-12-29T00:19:26;97468.38;;;10.65;66.93
7802;BME280;3945;48.952;9.506;2022-12-29T00:22:10;97461.50;;;10.74;66.59
7802;BME280;3945;48.952;9.506;2022-12-29T00:24:55;97457.78;;;10.75;66.38
7802;BME280;3945;48.952;9.506;2022-12-29T00:27:39;97453.59;;;10.79;66.45
7802;BME280;3945;48.952;9.506;2022-12-29T00:30:23;97454.41;;;10.79;66.20
7802;BME280;3945;48.952;9.506;2022-12-29T00:33:08;97444.81;;;10.78;66.01
7802;BME280;3945;48.952;9.506;2022-12-29T00:35:54;97452.00;;;10.83;66.14
7802;BME280;3945;48.952;9.506;2022-12-29T00:38:23;97448.84;;;10.86;65.30
7802;BME280;3945;48.952;9.506;2022-12-29T00:41:07;97447.00;;;10.86;65.89
7802;BME280;3945;48.952;9.506;2022-12-29T00:43:51;97441.94;;;10.85;65.73
7802;BME280;3945;48.952;9.506;2022-12-29T00:46:35;97445.09;;;10.82;65.39
7802;BME280;3945;48.952;9.506;2022-12-29T00:49:01;97445.88;;;10.82;66.00
7802;BME280;3945;48.952;9.506;2022-12-29T00:51:47;97443.00;;;10.89;65.20
7802;BME280;3945;48.952;9.506;2022-12-29T00:54:14;97446.25;;;10.96;64.67
7802;BME280;3945;48.952;9.506;2022-12-29T00:56:40;97438.56;;;10.94;65.58
7802;BME280;3945;48.952;9.506;2022-12-29T00:59:07;97441.47;;;10.93;65.27
7802;BME280;3945;48.952;9.506;2022-12-29T01:01:34;97444.06;;;10.88;65.34
7802;BME280;3945;48.952;9.506;2022-12-29T01:04:01;97445.16;;;10.87;65.13
7802;BME280;3945;48.952;9.506;2022-12-29T01:06:27;97445.38;;;10.85;65.47
7802;BME280;3945;48.952;9.506;2022-12-29T01:08:55;97446.19;;;10.86;65.21
7802;BME280;3945;48.952;9.506;2022-12-29T01:11:35;97449.09;;;10.84;65.29
7802;BME280;3945;48.952;9.506;2022-12-29T01:14:02;97443.78;;;10.84;65.43
7802;BME280;3945;48.952;9.506;2022-12-29T01:16:28;97448.84;;;10.86;65.23
7802;BME280;3945;48.952;9.506;2022-12-29T01:18:56;97455.50;;;10.88;65.60
7802;BME280;3945;48.952;9.506;2022-12-29T01:21:24;97449.69;;;10.91;65.48
7802;BME280;3945;48.952;9.506;2022-12-29T01:23:51;97453.25;;;11.02;65.46
7802;BME280;3945;48.952;9.506;2022-12-29T01:26:20;97453.78;;;11.04;65.03
7802;BME280;3945;48.952;9.506;2022-12-29T01:28:46;97457.81;;;11.12;65.17
7802;BME280;3945;48.952;9.506;2022-12-29T01:31:19;97461.38;;;11.22;64.76
7802;BME280;3945;48.952;9.506;2022-12-29T01:33:45;97466.72;;;11.27;65.07
7802;BME280;3945;48.952;9.506;2022-12-29T01:36:13;97458.25;;;11.30;65.17
7802;BME280;3945;48.952;9.506;2022-12-29T01:38:39;97460.69;;;11.37;64.76
7802;BME280;3945;48.952;9.506;2022-12-29T01:41:06;97468.94;;;11.41;64.22
7802;BME280;3945;48.952;9.506;2022-12-29T01:43:41;97469.78;;;11.46;64.29
7802;BME280;3945;48.952;9.506;2022-12-29T01:46:11;97469.53;;;11.53;63.74
7802;BME280;3945;48.952;9.506;2022-12-29T01:48:41;97471.94;;;11.49;64.01
7802;BME280;3945;48.952;9.506;2022-12-29T01:51:08;97473.31;;;11.57;63.46
7802;BME280;3945;48.952;9.506;2022-12-29T01:53:35;97464.00;;;11.59;63.37
7802;BME280;3945;48.952;9.506;2022-12-29T01:56:03;97463.47;;;11.57;64.07
7802;BME280;3945;48.952;9.506;2022-12-29T01:58:31;97458.16;;;11.62;63.09
7802;BME280;3945;48.952;9.506;2022-12-29T02:01:00;97458.94;;;11.63;62.96
7802;BME280;3945;48.952;9.506;2022-12-29T02:03:27;97454.44;;;11.63;63.65
7802;BME280;3945;48.952;9.506;2022-12-29T02:05:55;97450.97;;;11.63;62.93
7802;BME280;3945;48.952;9.506;2022-12-29T02:08:24;97459.19;;;11.61;63.76
7802;BME280;3945;48.952;9.506;2022-12-29T02:10:51;97453.38;;;11.64;64.04
7802;BME280;3945;48.952;9.506;2022-12-29T02:13:18;97452.31;;;11.65;63.85
7802;BME280;3945;48.952;9.506;2022-12-29T02:15:48;97452.56;;;11.64;63.62
7802;BME280;3945;48.952;9.506;2022-12-29T02:18:25;97450.72;;;11.64;63.73
7802;BME280;3945;48.952;9.506;2022-12-29T02:21:08;97447.25;;;11.69;63.21
7802;BME280;3945;48.952;9.506;2022-12-29T02:23:48;97437.94;;;11.71;62.89
7802;BME280;3945;48.952;9.506;2022-12-29T02:26:27;97435.78;;;11.68;63.13
7802;BME280;3945;48.952;9.506;2022-12-29T02:29:09;97438.72;;;11.67;63.51
7802;BME280;3945;48.952;9.506;2022-12-29T02:31:46;97434.47;;;11.71;62.68
7802;BME280;3945;48.952;9.506;2022-12-29T02:34:20;97437.41;;;11.69;63.17
7802;BME280;3945;48.952;9.506;2022-12-29T02:36:52;97436.88;;;11.72;62.60
7802;BME280;3945;48.952;9.506;2022-12-29T02:39:23;97429.69;;;11.73;62.64
7802;BME280;3945;48.952;9.506;2022-12-29T02:41:55;97432.63;;;11.71;62.91
7802;BME280;3945;48.952;9.506;2022-12-29T02:44:24;97432.88;;;11.70;63.31
7802;BME280;3945;48.952;9.506;2022-12-29T02:46:54;97429.66;;;11.68;63.36
7802;BME280;3945;48.952;9.506;2022-12-29T02:49:25;97427.28;;;11.66;63.21
7802;BME280;3945;48.952;9.506;2022-12-29T02:51:54;97433.41;;;11.67;62.70
7802;BME280;3945;48.952;9.506;2022-12-29T02:54:24;97423.56;;;11.72;62.09
7802;BME280;3945;48.952;9.506;2022-12-29T02:57:14;97420.59;;;11.69;63.23
7802;BME280;3945;48.952;9.506;2022-12-29T02:59:41;97426.22;;;11.72;62.77
7802;BME280;3945;48.952;9.506;2022-12-29T03:02:17;97427.59;;;11.75;62.62
7802;BME280;3945;48.952;9.506;2022-12-29T03:04:53;97424.91;;;11.75;62.45
7802;BME280;3945;48.952;9.506;2022-12-29T03:07:28;97428.69;;;11.79;61.73
7802;BME280;3945;48.952;9.506;2022-12-29T03:09:59;97420.16;;;11.82;62.02
7802;BME280;3945;48.952;9.506;2022-12-29T03:12:29;97420.69;;;11.84;62.04
7802;BME280;3945;48.952;9.506;2022-12-29T03:15:15;97416.97;;;11.80;62.33
7802;BME280;3945;48.952;9.506;2022-12-29T03:18:04;97414.00;;;11.82;62.20
7802;BME280;3945;48.952;9.506;2022-12-29T03:20:32;97422.00;;;11.82;62.18
7802;BME280;3945;48.952;9.506;2022-12-29T03:23:02;97420.69;;;11.79;62.99
7802;BME280;3945;48.952;9.506;2022-12-29T03:25:30;97415.63;;;11.83;62.20
7802;BME280;3945;48.952;9.506;2022-12-29T03:27:58;97414.31;;;11.85;62.33
7802;BME280;3945;48.952;9.506;2022-12-29T03:30:26;97412.69;;;11.84;62.44
7802;BME280;3945;48.952;9.506;2022-12-29T03:32:54;97406.31;;;11.85;62.46
7802;BME280;3945;48.952;9.506;2022-12-29T03:35:24;97401.25;;;11.89;62.31
7802;BME280;3945;48.952;9.506;2022-12-29T03:37:52;97408.72;;;11.92;61.92
7802;BME280;3945;48.952;9.506;2022-12-29T03:40:21;97408.97;;;11.90;62.40
7802;BME280;3945;48.952;9.506;2022-12-29T03:42:49;97394.34;;;11.93;62.31
7802;BME280;3945;48.952;9.506;2022-12-29T03:45:16;97401.28;;;11.94;62.10
7802;BME280;3945;48.952;9.506;2022-12-29T03:47:42;97403.13;;;11.93;62.30
7802;BME280;3945;48.952;9.506;2022-12-29T03:50:11;97402.34;;;11.93;62.03
7802;BME280;3945;48.952;9.506;2022-12-29T03:52:38;97398.06;;;11.92;62.20
7802;BME280;3945;48.952;9.506;2022-12-29T03:55:05;97405.53;;;11.95;62.14
7802;BME280;3945;48.952;9.506;2022-12-29T03:57:31;97409.28;;;11.94;61.97
7802;BME280;3945;48.952;9.506;2022-12-29T03:59:58;97394.03;;;11.89;62.50
7802;BME280;3945;48.952;9.506;2022-12-29T04:02:24;97395.38;;;11.92;62.07
7802;BME280;3945;48.952;9.506;2022-12-29T04:04:50;97395.38;;;11.92;62.79
7802;BME280;3945;48.952;9.506;2022-12-29T04:07:17;97397.81;;;11.93;62.03
7802;BME280;3945;48.952;9.506;2022-12-29T04:09:45;97399.91;;;11.91;62.40
7802;BME280;3945;48.952;9.506;2022-12-29T04:12:11;97404.69;;;11.89;62.53
7802;BME280;3945;48.952;9.506;2022-12-29T04:14:38;97396.19;;;11.87;63.04
7802;BME280;3945;48.952;9.506;2022-12-29T04:17:04;97393.78;;;11.86;63.20
7802;BME280;3945;48.952;9.506;2022-12-29T04:19:31;97402.84;;;11.90;62.79
7802;BME280;3945;48.952;9.506;2022-12-29T04:21:57;97410.56;;;11.86;62.81
7802;BME280;3945;48.952;9.506;2022-12-29T04:24:23;97400.69;;;11.82;63.27
7802;BME280;3945;48.952;9.506;2022-12-29T04:26:51;97396.97;;;11.83;63.31
7802;BME280;3945;48.952;9.506;2022-12-29T04:29:17;97412.16;;;11.82;63.92
7802;BME280;3945;48.952;9.506;2022-12-29T04:31:44;97417.22;;;11.84;63.59
7802;BME280;3945;48.952;9.506;2022-12-29T04:34:10;97419.34;;;11.82;64.24
7802;BME280;3945;48.952;9.506;2022-12-29T04:36:37;97419.88;;;11.84;63.57
7802;BME280;3945;48.952;9.506;2022-12-29T04:39:04;97420.44;;;11.86;64.08
7802;BME280;3945;48.952;9.506;2022-12-29T04:41:31;97417.75;;;11.81;64.56
7802;BME280;3945;48.952;9.506;2022-12-29T04:43:58;97411.34;;;11.82;64.40
7802;BME280;3945;48.952;9.506;2022-12-29T04:46:25;97412.44;;;11.81;65.06
7802;BME280;3945;48.952;9.506;2022-12-29T04:48:51;97414.53;;;11.79;64.79
7802;BME280;3945;48.952;9.506;2022-12-29T04:51:17;97403.63;;;11.80;65.12
7802;BME280;3945;48.952;9.506;2022-12-29T04:53:44;97398.00;;;11.82;65.10
7802;BME280;3945;48.952;9.506;2022-12-29T04:56:10;97386.28;;;11.78;65.03
7802;BME280;3945;48.952;9.506;2022-12-29T04:58:37;97381.75;;;11.78;64.99
7802;BME280;3945;48.952;9.506;2022-12-29T05:01:04;97393.47;;;11.77;64.85
7802;BME280;3945;48.952;9.506;2022-12-29T05:03:31;97391.88;;;11.76;64.85
7802;BME280;3945;48.952;9.506;2022-12-29T05:05:57;97398.81;;;11.77;64.76
7802;BME280;3945;48.952;9.506;2022-12-29T05:08:24;97387.88;;;11.79;65.06
7802;BME280;3945;48.952;9.506;2022-12-29T05:10:50;97386.28;;;11.78;65.59
7802;BME280;3945;48.952;9.506;2022-12-29T05:13:17;97384.38;;;11.73;65.58
7802;BME280;3945;48.952;9.506;2022-12-29T05:15:45;97389.47;;;11.74;65.84
7802;BME280;3945;48.952;9.506;2022-12-29T05:18:13;97385.19;;;11.73;66.24
7802;BME280;3945;48.952;9.506;2022-12-29T05:20:40;97389.72;;;11.73;66.18
7802;BME280;3945;48.952;9.506;2022-12-29T05:23:06;97387.56;;;11.70;66.75
7802;BME280;3945;48.952;9.506;2022-12-29T05:25:32;97379.56;;;11.70;66.43
7802;BME280;3945;48.952;9.506;2022-12-29T05:27:58;97372.63;;;11.69;66.69
7802;BME280;3945;48.952;9.506;2022-12-29T05:30:25;97375.81;;;11.66;66.83
7802;BME280;3945;48.952;9.506;2022-12-29T05:32:51;97368.34;;;11.58;67.34
7802;BME280;3945;48.952;9.506;2022-12-29T05:35:19;97369.66;;;11.60;67.02
7802;BME280;3945;48.952;9.506;2022-12-29T05:37:45;97373.13;;;11.61;67.53
7802;BME280;3945;48.952;9.506;2022-12-29T05:40:11;97371.78;;;11.58;66.92
7802;BME280;3945;48.952;9.506;2022-12-29T05:42:38;97385.38;;;11.52;67.97
7802;BME280;3945;48.952;9.506;2022-12-29T05:45:05;97395.22;;;11.51;68.09
7802;BME280;3945;48.952;9.506;2022-12-29T05:47:32;97397.34;;;11.49;67.97
7802;BME280;3945;48.952;9.506;2022-12-29T05:49:58;97402.41;;;11.51;68.59
7802;BME280;3945;48.952;9.506;2022-12-29T05:52:26;97390.41;;;11.48;68.46
7802;BME280;3945;48.952;9.506;2022-12-29T05:54:52;97384.00;;;11.49;67.94
7802;BME280;3945;48.952;9.506;2022-12-29T05:57:18;97392.56;;;11.51;68.37
7802;BME280;3945;48.952;9.506;2022-12-29T05:59:45;97383.22;;;11.54;68.13
7802;BME280;3945;48.952;9.506;2022-12-29T06:02:11;97396.03;;;11.52;68.60
7802;BME280;3945;48.952;9.506;2022-12-29T06:04:37;97391.50;;;11.52;68.20
7802;BME280;3945;48.952;9.506;2022-12-29T06:07:04;97385.88;;;11.54;67.73
7802;BME280;3945;48.952;9.506;2022-12-29T06:09:31;97396.03;;;11.57;67.43
7802;BME280;3945;48.952;9.506;2022-12-29T06:11:58;97392.06;;;11.59;67.47
7802;BME280;3945;48.952;9.506;2022-12-29T06:14:24;97384.06;;;11.64;67.38
7802;BME280;3945;48.952;9.506;2022-12-29T06:16:50;97379.28;;;11.66;67.02
7802;BME280;3945;48.952;9.506;2022-12-29T06:19:16;97367.28;;;11.64;67.47
7802;BME280;3945;48.952;9.506;2022-12-29T06:21:43;97374.22;;;11.70;66.39
7802;BME280;3945;48.952;9.506;2022-12-29T06:24:09;97376.34;;;11.68;67.36
7802;BME280;3945;48.952;9.506;2022-12-29T06:26:37;97379.28;;;11.66;66.99
7802;BME280;3945;48.952;9.506;2022-12-29T06:29:05;97372.09;;;11.67;66.57
7802;BME280;3945;48.952;9.506;2022-12-29T06:31:32;97378.75;;;11.64;66.44
7802;BME280;3945;48.952;9.506;2022-12-29T06:33:58;97379.81;;;11.68;66.69
7802;BME280;3945;48.952;9.506;2022-12-29T06:36:24;97382.78;;;11.72;65.97
7802;BME280;3945;48.952;9.506;2022-12-29T06:38:50;97387.59;;;11.75;66.81
7802;BME280;3945;48.952;9.506;2022-12-29T06:41:18;97390.50;;;11.73;66.08
7802;BME280;3945;48.952;9.506;2022-12-29T06:43:45;97394.53;;;11.76;66.58
7802;BME280;3945;48.952;9.506;2022-12-29T06:46:12;97394.78;;;11.74;65.96
7802;BME280;3945;48.952;9.506;2022-12-29T06:48:38;97386.03;;;11.74;65.83
7802;BME280;3945;48.952;9.506;2022-12-29T06:51:07;97381.50;;;11.80;65.73
7802;BME280;3945;48.952;9.506;2022-12-29T06:53:33;97386.56;;;11.81;66.09
7802;BME280;3945;48.952;9.506;2022-12-29T06:55:59;97374.81;;;11.77;66.07
7802;BME280;3945;48.952;9.506;2022-12-29T06:58:26;97381.75;;;11.83;65.41
7802;BME280;3945;48.952;9.506;2022-12-29T07:00:54;97379.66;;;11.85;65.54
7802;BME280;3945;48.952;9.506;2022-12-29T07:03:20;97382.31;;;11.85;66.04
7802;BME280;3945;48.952;9.506;2022-12-29T07:05:46;97376.72;;;11.87;65.96
7802;BME280;3945;48.952;9.506;2022-12-29T07:08:12;97379.66;;;11.90;65.29
7802;BME280;3945;48.952;9.506;2022-12-29T07:10:39;97378.34;;;11.93;64.90
7802;BME280;3945;48.952;9.506;2022-12-29T07:13:05;97372.19;;;11.92;65.89
7802;BME280;3945;48.952;9.506;2022-12-29T07:15:32;97382.34;;;11.95;65.26
7802;BME280;3945;48.952;9.506;2022-12-29T07:18:00;97379.41;;;11.97;65.83
7802;BME280;3945;48.952;9.506;2022-12-29T07:20:26;97379.16;;;11.98;65.58
7802;BME280;3945;48.952;9.506;2022-12-29T07:22:53;97381.25;;;11.91;65.79
7802;BME280;3945;48.952;9.506;2022-12-29T07:25:19;97390.59;;;11.94;65.32
7802;BME280;3945;48.952;9.506;2022-12-29T07:27:46;97378.06;;;11.94;64.81
7802;BME280;3945;48.952;9.506;2022-12-29T07:30:12;97374.34;;;12.00;64.64
7802;BME280;3945;48.952;9.506;2022-12-29T07:32:38;97377.28;;;12.04;64.39
7802;BME280;3945;48.952;9.506;2022-12-29T07:35:06;97382.63;;;12.04;64.42
7802;BME280;3945;48.952;9.506;2022-12-29T07:37:33;97389.56;;;12.05;64.22
7802;BME280;3945;48.952;9.506;2022-12-29T07:40:00;97382.66;;;12.09;64.00
7802;BME280;3945;48.952;9.506;2022-12-29T07:42:26;97380.25;;;12.12;63.80
7802;BME280;3945;48.952;9.506;2022-12-29T07:44:53;97383.72;;;12.13;64.96
7802;BME280;3945;48.952;9.506;2022-12-29T07:47:19;97395.44;;;12.12;64.65
7802;BME280;3945;48.952;9.506;2022-12-29T07:49:45;97385.31;;;12.14;64.17
7802;BME280;3945;48.952;9.506;2022-12-29T07:52:13;97398.91;;;12.18;63.98
7802;BME280;3945;48.952;9.506;2022-12-29T07:54:39;97386.94;;;12.20;64.15
7802;BME280;3945;48.952;9.506;2022-12-29T07:57:06;97382.41;;;12.26;63.98
7802;BME280;3945;48.952;9.506;2022-12-29T07:59:32;97385.59;;;12.28;64.06
7802;BME280;3945;48.952;9.506;2022-12-29T08:01:58;97386.94;;;12.30;64.35
7802;BME280;3945;48.952;9.506;2022-12-29T08:04:25;97385.09;;;12.31;63.94
7802;BME280;3945;48.952;9.506;2022-12-29T08:06:51;97393.59;;;12.33;63.79
7802;BME280;3945;48.952;9.506;2022-12-29T08:09:19;97401.63;;;12.38;63.29
7802;BME280;3945;48.952;9.506;2022-12-29T08:11:45;97393.34;;;12.39;64.00
7802;BME280;3945;48.952;9.506;2022-12-29T08:14:12;97396.56;;;12.41;63.65
7802;BME280;3945;48.952;9.506;2022-12-29T08:16:38;97398.97;;;12.43;64.01
7802;BME280;3945;48.952;9.506;2022-12-29T08:19:04;97397.91;;;12.44;63.88
7802;BME280;3945;48.952;9.506;2022-12-29T08:21:31;97406.16;;;12.42;63.92
7802;BME280;3945;48.952;9.506;2022-12-29T08:23:57;97401.63;;;12.43;63.84
7802;BME280;3945;48.952;9.506;2022-12-29T08:26:25;97400.56;;;12.44;63.52
7802;BME280;3945;48.952;9.506;2022-12-29T08:28:51;97409.66;;;12.43;64.15
7802;BME280;3945;48.952;9.506;2022-12-29T08:31:18;97405.91;;;12.44;63.66
7802;BME280;3945;48.952;9.506;2022-12-29T08:33:44;97395.50;;;12.47;63.29
7802;BME280;3945;48.952;9.506;2022-12-29T08:36:11;97401.13;;;12.51;63.19
7802;BME280;3945;48.952;9.506;2022-12-29T08:38:37;97406.44;;;12.56;63.03
7802;BME280;3945;48.952;9.506;2022-12-29T08:41:03;97404.06;;;12.60;63.20
7802;BME280;3945;48.952;9.506;2022-12-29T08:43:31;97397.91;;;12.59;63.77
7802;BME280;3945;48.952;9.506;2022-12-29T08:45:57;97398.72;;;12.60;63.22
7802;BME280;3945;48.952;9.506;2022-12-29T08:48:24;97400.31;;;12.61;63.16
7802;BME280;3945;48.952;9.506;2022-12-29T08:50:50;97384.56;;;12.64;62.58
7802;BME280;3945;48.952;9.506;2022-12-29T08:53:17;97393.38;;;12.70;62.17
7802;BME280;3945;48.952;9.506;2022-12-29T08:55:44;97390.19;;;12.73;62.04
7802;BME280;3945;48.952;9.506;2022-12-29T08:58:10;97394.72;;;12.77;62.62
7802;BME280;3945;48.952;9.506;2022-12-29T09:00:40;97389.38;;;12.77;62.41
7802;BME280;3945;48.952;9.506;2022-12-29T09:03:07;97399.78;;;12.79;62.82
7802;BME280;3945;48.952;9.506;2022-12-29T09:05:33;97401.94;;;12.82;61.96
7802;BME280;3945;48.952;9.506;2022-12-29T09:08:00;97411.81;;;12.81;62.49
7802;BME280;3945;48.952;9.506;2022-12-29T09:10:26;97409.13;;;12.81;63.06
7802;BME280;3945;48.952;9.506;2022-12-29T09:12:52;97402.19;;;12.80;63.10
7802;BME280;3945;48.952;9.506;2022-12-29T09:15:19;97416.84;;;12.83;62.38
7802;BME280;3945;48.952;9.506;2022-12-29T09:17:46;97410.72;;;12.87;61.73
7802;BME280;3945;48.952;9.506;2022-12-29T09:20:13;97428.34;;;12.94;61.76
7802;BME280;3945;48.952;9.506;2022-12-29T09:22:41;97419.00;;;12.96;62.24
7802;BME280;3945;48.952;9.506;2022-12-29T09:25:08;97426.47;;;12.99;61.38
7802;BME280;3945;48.952;9.506;2022-12-29T09:27:34;97431.00;;;12.99;61.91
7802;BME280;3945;48.952;9.506;2022-12-29T09:30:01;97426.47;;;12.99;62.26
7802;BME280;3945;48.952;9.506;2022-12-29T09:32:27;97416.34;;;12.96;62.46
7802;BME280;3945;48.952;9.506;2022-12-29T09:34:55;97428.91;;;12.96;62.01
7802;BME280;3945;48.952;9.506;2022-12-29T09:37:21;97434.50;;;12.94;62.87
7802;BME280;3945;48.952;9.506;2022-12-29T09:39:47;97432.09;;;12.93;62.76
7802;BME280;3945;48.952;9.506;2022-12-29T09:42:16;97435.56;;;12.93;62.44
7802;BME280;3945;48.952;9.506;2022-12-29T09:44:51;97428.06;;;12.90;62.86
7802;BME280;3945;48.952;9.506;2022-12-29T09:47:21;97428.06;;;12.90;62.80
7802;BME280;3945;48.952;9.506;2022-12-29T09:49:49;97429.97;;;12.95;62.72
7802;BME280;3945;48.952;9.506;2022-12-29T09:52:21;97430.22;;;12.93;62.69
7802;BME280;3945;48.952;9.506;2022-12-29T09:54:51;97423.81;;;12.94;62.32
7802;BME280;3945;48.952;9.506;2022-12-29T09:57:20;97431.28;;;12.97;62.34
7802;BME280;3945;48.952;9.506;2022-12-29T09:59:48;97416.84;;;12.98;62.46
7802;BME280;3945;48.952;9.506;2022-12-29T10:02:21;97423.28;;;13.02;62.03
7802;BME280;3945;48.952;9.506;2022-12-29T10:04:50;97422.72;;;13.05;61.96
7802;BME280;3945;48.952;9.506;2022-12-29T10:07:17;97425.41;;;13.10;61.96
7802;BME280;3945;48.952;9.506;2022-12-29T10:09:51;97415.53;;;13.16;62.09
7802;BME280;3945;48.952;9.506;2022-12-29T10:12:21;97398.97;;;13.19;62.16
7802;BME280;3945;48.952;9.506;2022-12-29T10:14:55;97409.91;;;13.33;61.46
7802;BME280;3945;48.952;9.506;2022-12-29T10:17:26;97410.97;;;13.37;62.22
7802;BME280;3945;48.952;9.506;2022-12-29T10:19:58;97419.81;;;13.32;61.57
7802;BME280;3945;48.952;9.506;2022-12-29T10:22:31;97418.97;;;13.26;61.98
7802;BME280;3945;48.952;9.506;2022-12-29T10:25:00;97424.63;;;13.25;63.57
7802;BME280;3945;48.952;9.506;2022-12-29T10:27:30;97420.09;;;13.15;65.03
7802;BME280;3945;48.952;9.506;2022-12-29T10:29:58;97417.94;;;13.07;63.46
7802;BME280;3945;48.952;9.506;2022-12-29T10:32:28;97415.78;;;13.04;63.74
7802;BME280;3945;48.952;9.506;2022-12-29T10:34:57;97414.47;;;13.02;63.44
7802;BME280;3945;48.952;9.506;2022-12-29T10:37:27;97429.69;;;13.01;64.41
7802;BME280;3945;48.952;9.506;2022-12-29T10:39:56;97436.91;;;12.96;66.15
7802;BME280;3945;48.952;9.506;2022-12-29T10:42:25;97423.53;;;12.90;67.04
7802;BME280;3945;48.952;9.506;2022-12-29T10:44:53;97413.94;;;12.84;68.68
7802;BME280;3945;48.952;9.506;2022-12-29T10:47:20;97410.72;;;12.82;67.47
7802;BME280;3945;48.952;9.506;2022-12-29T10:49:48;97410.19;;;12.75;66.09
7802;BME280;3945;48.952;9.506;2022-12-29T10:52:15;97422.47;;;12.76;66.57
7802;BME280;3945;48.952;9.506;2022-12-29T10:54:44;97417.13;;;12.76;65.99
7802;BME280;3945;48.952;9.506;2022-12-29T10:57:22;97412.59;;;12.77;66.41
7802;BME280;3945;48.952;9.506;2022-12-29T10:59:51;97412.59;;;12.77;66.74
7802;BME280;3945;48.952;9.506;2022-12-29T11:02:42;97414.47;;;12.76;66.57
7802;BME280;3945;48.952;9.506;2022-12-29T11:05:10;97418.47;;;12.79;68.18
7802;BME280;3945;48.952;9.506;2022-12-29T11:07:42;97425.69;;;12.73;69.12
7802;BME280;3945;48.952;9.506;2022-12-29T11:10:19;97427.28;;;12.69;68.84
7802;BME280;3945;48.952;9.506;2022-12-29T11:12:56;97435.28;;;12.69;69.61
7802;BME280;3945;48.952;9.506;2022-12-29T11:15:24;97426.75;;;12.72;68.67
7802;BME280;3945;48.952;9.506;2022-12-29T11:17:51;97418.75;;;12.72;69.03
7802;BME280;3945;48.952;9.506;2022-12-29T11:20:19;97427.56;;;12.68;69.18
7802;BME280;3945;48.952;9.506;2022-12-29T11:22:52;97416.09;;;12.67;69.05
7802;BME280;3945;48.952;9.506;2022-12-29T11:25:19;97434.22;;;12.70;70.07
7802;BME280;3945;48.952;9.506;2022-12-29T11:27:51;97439.03;;;12.73;69.56
7802;BME280;3945;48.952;9.506;2022-12-29T11:30:22;97425.41;;;12.80;69.73
7802;BME280;3945;48.952;9.506;2022-12-29T11:32:51;97427.03;;;12.81;69.70
7802;BME280;3945;48.952;9.506;2022-12-29T11:35:28;97428.34;;;12.83;69.59
7802;BME280;3945;48.952;9.506;2022-12-29T11:37:55;97433.44;;;12.85;69.33
7802;BME280;3945;48.952;9.506;2022-12-29T11:40:23;97433.44;;;12.85;68.92
7802;BME280;3945;48.952;9.506;2022-12-29T11:42:50;97426.75;;;12.82;68.83
7802;BME280;3945;48.952;9.506;2022-12-29T11:45:18;97427.56;;;12.78;69.77
7802;BME280;3945;48.952;9.506;2022-12-29T11:47:45;97432.09;;;12.77;69.37
7802;BME280;3945;48.952;9.506;2022-12-29T11:50:17;97426.47;;;12.84;69.85
7802;BME280;3945;48.952;9.506;2022-12-29T11:52:45;97422.47;;;12.86;69.76
7802;BME280;3945;48.952;9.506;2022-12-29T11:55:16;97419.28;;;12.84;69.44
7802;BME280;3945;48.952;9.506;2022-12-29T11:57:44;97423.03;;;12.88;69.43
7802;BME280;3945;48.952;9.506;2022-12-29T12:00:14;97416.88;;;12.88;68.71
7802;BME280;3945;48.952;9.506;2022-12-29T12:02:42;97411.25;;;12.89;68.21
7802;BME280;3945;48.952;9.506;2022-12-29T12:05:14;97419.81;;;12.91;68.80
7802;BME280;3945;48.952;9.506;2022-12-29T12:07:44;97427.56;;;12.88;71.11
7802;BME280;3945;48.952;9.506;2022-12-29T12:10:21;97429.16;;;12.84;71.75
7802;BME280;3945;48.952;9.506;2022-12-29T12:12:51;97414.47;;;12.76;70.25
7802;BME280;3945;48.952;9.506;2022-12-29T12:15:20;97419.56;;;12.68;69.80
7802;BME280;3945;48.952;9.506;2022-12-29T12:17:50;97435.03;;;12.66;69.42
7802;BME280;3945;48.952;9.506;2022-12-29T12:20:19;97413.66;;;12.61;68.36
7802;BME280;3945;48.952;9.506;2022-12-29T12:22:51;97419.53;;;12.58;68.25
7802;BME280;3945;48.952;9.506;2022-12-29T12:25:20;97429.94;;;12.54;68.10
7802;BME280;3945;48.952;9.506;2022-12-29T12:27:48;97425.94;;;12.51;68.08
7802;BME280;3945;48.952;9.506;2022-12-29T12:30:18;97445.13;;;12.53;68.17
7802;BME280;3945;48.952;9.506;2022-12-29T12:32:46;97445.69;;;12.50;68.92
7802;BME280;3945;48.952;9.506;2022-12-29T12:35:15;97447.56;;;12.45;69.92
7802;BME280;3945;48.952;9.506;2022-12-29T12:37:48;97459.81;;;12.41;71.82
7802;BME280;3945;48.952;9.506;2022-12-29T12:40:27;97445.66;;;12.35;72.88
7802;BME280;3945;48.952;9.506;2022-12-29T12:43:01;97440.81;;;12.27;74.97
7802;BME280;3945;48.952;9.506;2022-12-29T12:45:43;97437.09;;;12.28;75.07
7802;BME280;3945;48.952;9.506;2022-12-29T12:48:18;97429.59;;;12.25;76.29
7802;BME280;3945;48.952;9.506;2022-12-29T12:50:51;97423.75;;;12.23;76.41
7802;BME280;3945;48.952;9.506;2022-12-29T12:56:07;97431.22;;;12.21;76.74
7802;BME280;3945;48.952;9.506;2022-12-29T12:58:41;97418.38;;;12.18;76.69
7802;BME280;3945;48.952;9.506;2022-12-29T13:01:14;97413.84;;;12.19;77.19
7802;BME280;3945;48.952;9.506;2022-12-29T13:03:50;97418.38;;;12.18;76.28
7802;BME280;3945;48.952;9.506;2022-12-29T13:06:22;97402.38;;;12.18;76.72
7802;BME280;3945;48.952;9.506;2022-12-29T13:09:02;97404.25;;;12.18;76.73
7802;BME280;3945;48.952;9.506;2022-12-29T13:11:41;97406.66;;;12.19;77.15
7802;BME280;3945;48.952;9.506;2022-12-29T13:14:19;97402.38;;;12.13;77.88
7802;BME280;3945;48.952;9.506;2022-12-29T13:16:49;97407.72;;;12.13;77.36
7802;BME280;3945;48.952;9.506;2022-12-29T13:19:20;97401.31;;;12.14;77.97
7802;BME280;3945;48.952;9.506;2022-12-29T13:21:52;97412.25;;;12.12;77.65
7802;BME280;3945;48.952;9.506;2022-12-29T13:24:21;97413.84;;;12.13;77.55
7802;BME280;3945;48.952;9.506;2022-12-29T13:26:52;97402.13;;;12.15;77.36
7802;BME280;3945;48.952;9.506;2022-12-29T13:29:20;97403.19;;;12.19;78.01
7802;BME280;3945;48.952;9.506;2022-12-29T13:31:50;97397.88;;;12.24;77.20
7802;BME280;3945;48.952;9.506;2022-12-29T13:34:21;97396.28;;;12.33;77.15
7802;BME280;3945;48.952;9.506;2022-12-29T13:36:51;97396.00;;;12.39;75.38